sensor_id;sensor_type;location;lat;lon;timestamp;P1;durP1;ratioP1;P2;durP2;ratioP2
5787;SDS011;2920;48.158;12.254;2023-04-24T00:00:13;6.20;;;2.00;;
5787;SDS011;2920;48.158;12.254;2023-04-24T00:02:40;2.90;;;2.00;;
5787;SDS011;2920;48.158;12.254;2023-04-24T00:05:06;2.33;;;1.88;;
5787;SDS011;2920;48.158;12.254;2023-04-24T00:07:32;3.72;;;1.90;;
5787;SDS011;2920;48.158;12.254;2023-04-24T00:09:58;4.28;;;1.95;;
5787;SDS011;2920;48.158;12.254;2023-04-24T00:12:23;2.95;;;1.90;;
5787;SDS011;2920;48.158;12.254;2023-04-24T00:14:49;3.13;;;1.77;;
5787;SDS011;2920;48.158;12.254;2023-04-24T00:17:14;3.20;;;1.85;;
5787;SDS011;2920;48.158;12.254;2023-04-24T00:19:40;3.55;;;1.77;;
5787;SDS011;2920;48.158;12.254;2023-04-24T00:22:05;2.80;;;1.95;;
5787;SDS011;2920;48.158;12.254;2023-04-24T00:24:30;3.67;;;1.98;;
5787;SDS011;2920;48.158;12.254;2023-04-24T00:26:56;4.40;;;2.10;;
5787;SDS011;2920;48.158;12.254;2023-04-24T00:29:21;2.67;;;1.70;;
5787;SDS011;2920;48.158;12.254;2023-04-24T00:31:47;2.28;;;1.63;;
5787;SDS011;2920;48.158;12.254;2023-04-24T00:34:12;6.80;;;2.15;;
5787;SDS011;2920;48.158;12.254;2023-04-24T00:36:37;2.78;;;1.77;;
5787;SDS011;2920;48.158;12.254;2023-04-24T00:39:03;2.53;;;1.50;;
5787;SDS011;2920;48.158;12.254;2023-04-24T00:41:28;3.10;;;1.98;;
5787;SDS011;2920;48.158;12.254;2023-04-24T00:43:54;3.05;;;1.77;;
5787;SDS011;2920;48.158;12.254;2023-04-24T00:46:20;2.78;;;1.83;;
5787;SDS011;2920;48.158;12.254;2023-04-24T00:48:45;4.50;;;1.77;;
5787;SDS011;2920;48.158;12.254;2023-04-24T00:51:11;3.25;;;2.13;;
5787;SDS011;2920;48.158;12.254;2023-04-24T00:53:36;2.78;;;1.58;;
5787;SDS011;2920;48.158;12.254;2023-04-24T00:56:02;3.10;;;1.70;;
5787;SDS011;2920;48.158;12.254;2023-04-24T00:58:27;5.18;;;1.73;;
5787;SDS011;2920;48.158;12.254;2023-04-24T01:00:53;1.80;;;1.40;;
5787;SDS011;2920;48.158;12.254;2023-04-24T01:03:20;2.78;;;1.33;;
5787;SDS011;2920;48.158;12.254;2023-04-24T01:05:47;1.95;;;1.55;;
5787;SDS011;2920;48.158;12.254;2023-04-24T01:08:13;2.63;;;1.58;;
5787;SDS011;2920;48.158;12.254;2023-04-24T01:10:38;1.90;;;1.45;;
5787;SDS011;2920;48.158;12.254;2023-04-24T01:13:06;2.08;;;1.30;;
5787;SDS011;2920;48.158;12.254;2023-04-24T01:15:32;2.70;;;1.60;;
5787;SDS011;2920;48.158;12.254;2023-04-24T01:17:58;1.92;;;1.55;;
5787;SDS011;2920;48.158;12.254;2023-04-24T01:20:23;1.80;;;1.13;;
5787;SDS011;2920;48.158;12.254;2023-04-24T01:22:51;1.25;;;1.10;;
5787;SDS011;2920;48.158;12.254;2023-04-24T01:25:16;2.47;;;1.40;;
5787;SDS011;2920;48.158;12.254;2023-04-24T01:27:42;2.33;;;1.25;;
5787;SDS011;2920;48.158;12.254;2023-04-24T01:30:07;2.97;;;1.40;;
5787;SDS011;2920;48.158;12.254;2023-04-24T01:32:33;4.28;;;1.55;;
5787;SDS011;2920;48.158;12.254;2023-04-24T01:34:59;2.92;;;1.50;;
5787;SDS011;2920;48.158;12.254;2023-04-24T01:37:25;2.50;;;1.27;;
5787;SDS011;2920;48.158;12.254;2023-04-24T01:39:51;1.23;;;1.10;;
5787;SDS011;2920;48.158;12.254;2023-04-24T01:42:17;1.25;;;1.02;;
5787;SDS011;2920;48.158;12.254;2023-04-24T01:44:42;1.70;;;1.35;;
5787;SDS011;2920;48.158;12.254;2023-04-24T01:47:07;1.30;;;1.20;;
5787;SDS011;2920;48.158;12.254;2023-04-24T01:49:33;1.73;;;1.55;;
5787;SDS011;2920;48.158;12.254;2023-04-24T01:51:58;4.22;;;1.60;;
5787;SDS011;2920;48.158;12.254;2023-04-24T01:54:23;1.17;;;1.08;;
5787;SDS011;2920;48.158;12.254;2023-04-24T01:56:49;1.88;;;1.23;;
5787;SDS011;2920;48.158;12.254;2023-04-24T01:59:14;2.35;;;1.30;;
5787;SDS011;2920;48.158;12.254;2023-04-24T02:01:40;2.67;;;1.08;;
5787;SDS011;2920;48.158;12.254;2023-04-24T02:04:06;2.13;;;1.33;;
5787;SDS011;2920;48.158;12.254;2023-04-24T02:06:32;2.03;;;1.00;;
5787;SDS011;2920;48.158;12.254;2023-04-24T02:09:00;1.23;;;1.10;;
5787;SDS011;2920;48.158;12.254;2023-04-24T02:11:26;2.55;;;1.20;;
5787;SDS011;2920;48.158;12.254;2023-04-24T02:13:51;1.15;;;1.00;;
5787;SDS011;2920;48.158;12.254;2023-04-24T02:16:17;2.95;;;1.20;;
5787;SDS011;2920;48.158;12.254;2023-04-24T02:18:42;1.10;;;1.00;;
5787;SDS011;2920;48.158;12.254;2023-04-24T02:21:08;2.90;;;1.05;;
5787;SDS011;2920;48.158;12.254;2023-04-24T02:23:34;2.40;;;1.25;;
5787;SDS011;2920;48.158;12.254;2023-04-24T02:25:59;1.52;;;1.05;;
5787;SDS011;2920;48.158;12.254;2023-04-24T02:28:25;1.10;;;1.00;;
5787;SDS011;2920;48.158;12.254;2023-04-24T02:30:50;0.90;;;0.80;;
5787;SDS011;2920;48.158;12.254;2023-04-24T02:33:16;1.50;;;1.20;;
5787;SDS011;2920;48.158;12.254;2023-04-24T02:35:41;1.52;;;1.20;;
5787;SDS011;2920;48.158;12.254;2023-04-24T02:38:07;1.67;;;1.00;;
5787;SDS011;2920;48.158;12.254;2023-04-24T02:40:32;3.08;;;1.00;;
5787;SDS011;2920;48.158;12.254;2023-04-24T02:42:57;1.30;;;1.08;;
5787;SDS011;2920;48.158;12.254;2023-04-24T02:45:23;0.98;;;0.90;;
5787;SDS011;2920;48.158;12.254;2023-04-24T02:47:48;2.40;;;1.05;;
5787;SDS011;2920;48.158;12.254;2023-04-24T02:50:13;1.20;;;0.95;;
5787;SDS011;2920;48.158;12.254;2023-04-24T02:52:38;1.02;;;0.85;;
5787;SDS011;2920;48.158;12.254;2023-04-24T02:55:04;1.95;;;1.08;;
5787;SDS011;2920;48.158;12.254;2023-04-24T02:57:30;1.85;;;0.68;;
5787;SDS011;2920;48.158;12.254;2023-04-24T02:59:55;1.05;;;0.80;;
5787;SDS011;2920;48.158;12.254;2023-04-24T03:02:20;1.10;;;0.82;;
5787;SDS011;2920;48.158;12.254;2023-04-24T03:04:46;0.80;;;0.80;;
5787;SDS011;2920;48.158;12.254;2023-04-24T03:07:13;1.85;;;0.95;;
5787;SDS011;2920;48.158;12.254;2023-04-24T03:09:39;1.02;;;0.73;;
5787;SDS011;2920;48.158;12.254;2023-04-24T03:12:05;1.38;;;0.90;;
5787;SDS011;2920;48.158;12.254;2023-04-24T03:14:30;1.27;;;0.90;;
5787;SDS011;2920;48.158;12.254;2023-04-24T03:16:56;2.08;;;0.85;;
5787;SDS011;2920;48.158;12.254;2023-04-24T03:19:21;0.98;;;0.88;;
5787;SDS011;2920;48.158;12.254;2023-04-24T03:21:47;1.05;;;0.50;;
5787;SDS011;2920;48.158;12.254;2023-04-24T03:24:12;0.75;;;0.60;;
5787;SDS011;2920;48.158;12.254;2023-04-24T03:26:37;1.75;;;0.47;;
5787;SDS011;2920;48.158;12.254;2023-04-24T03:29:03;1.38;;;0.73;;
5787;SDS011;2920;48.158;12.254;2023-04-24T03:31:28;1.33;;;0.70;;
5787;SDS011;2920;48.158;12.254;2023-04-24T03:33:53;2.75;;;0.60;;
5787;SDS011;2920;48.158;12.254;2023-04-24T03:36:19;1.00;;;0.73;;
5787;SDS011;2920;48.158;12.254;2023-04-24T03:38:45;0.90;;;0.75;;
5787;SDS011;2920;48.158;12.254;2023-04-24T03:41:10;0.63;;;0.60;;
5787;SDS011;2920;48.158;12.254;2023-04-24T03:43:36;1.10;;;0.60;;
5787;SDS011;2920;48.158;12.254;2023-04-24T03:46:02;0.47;;;0.47;;
5787;SDS011;2920;48.158;12.254;2023-04-24T03:48:27;0.77;;;0.57;;
5787;SDS011;2920;48.158;12.254;2023-04-24T03:50:53;1.52;;;0.70;;
5787;SDS011;2920;48.158;12.254;2023-04-24T03:53:18;0.80;;;0.70;;
5787;SDS011;2920;48.158;12.254;2023-04-24T03:55:44;0.80;;;0.70;;
5787;SDS011;2920;48.158;12.254;2023-04-24T03:58:10;0.82;;;0.63;;
5787;SDS011;2920;48.158;12.254;2023-04-24T04:00:36;1.10;;;0.80;;
5787;SDS011;2920;48.158;12.254;2023-04-24T04:03:02;0.40;;;0.40;;
5787;SDS011;2920;48.158;12.254;2023-04-24T04:05:28;0.55;;;0.43;;
5787;SDS011;2920;48.158;12.254;2023-04-24T04:07:53;1.00;;;0.68;;
5787;SDS011;2920;48.158;12.254;2023-04-24T04:10:18;1.92;;;0.47;;
5787;SDS011;2920;48.158;12.254;2023-04-24T04:12:43;2.17;;;0.70;;
5787;SDS011;2920;48.158;12.254;2023-04-24T04:15:09;1.02;;;0.60;;
5787;SDS011;2920;48.158;12.254;2023-04-24T04:17:34;0.52;;;0.50;;
5787;SDS011;2920;48.158;12.254;2023-04-24T04:20:00;0.70;;;0.70;;
5787;SDS011;2920;48.158;12.254;2023-04-24T04:22:26;0.95;;;0.50;;
5787;SDS011;2920;48.158;12.254;2023-04-24T04:24:51;1.00;;;0.80;;
5787;SDS011;2920;48.158;12.254;2023-04-24T04:27:16;0.70;;;0.70;;
5787;SDS011;2920;48.158;12.254;2023-04-24T04:29:43;1.30;;;0.80;;
5787;SDS011;2920;48.158;12.254;2023-04-24T04:32:09;0.30;;;0.30;;
5787;SDS011;2920;48.158;12.254;2023-04-24T04:34:34;1.05;;;0.75;;
5787;SDS011;2920;48.158;12.254;2023-04-24T04:37:02;0.60;;;0.60;;
5787;SDS011;2920;48.158;12.254;2023-04-24T04:39:27;1.23;;;0.70;;
5787;SDS011;2920;48.158;12.254;2023-04-24T04:41:53;2.00;;;0.77;;
5787;SDS011;2920;48.158;12.254;2023-04-24T04:44:18;1.50;;;0.55;;
5787;SDS011;2920;48.158;12.254;2023-04-24T04:46:44;0.60;;;0.60;;
5787;SDS011;2920;48.158;12.254;2023-04-24T04:49:09;0.85;;;0.68;;
5787;SDS011;2920;48.158;12.254;2023-04-24T04:51:36;0.70;;;0.68;;
5787;SDS011;2920;48.158;12.254;2023-04-24T04:54:01;1.00;;;0.70;;
5787;SDS011;2920;48.158;12.254;2023-04-24T04:56:27;0.55;;;0.50;;
5787;SDS011;2920;48.158;12.254;2023-04-24T04:58:52;1.58;;;0.88;;
5787;SDS011;2920;48.158;12.254;2023-04-24T05:01:18;2.40;;;0.80;;
5787;SDS011;2920;48.158;12.254;2023-04-24T05:03:43;1.27;;;0.77;;
5787;SDS011;2920;48.158;12.254;2023-04-24T05:06:08;0.80;;;0.80;;
5787;SDS011;2920;48.158;12.254;2023-04-24T05:08:34;2.47;;;0.80;;
5787;SDS011;2920;48.158;12.254;2023-04-24T05:10:59;0.57;;;0.50;;
5787;SDS011;2920;48.158;12.254;2023-04-24T05:13:25;0.90;;;0.70;;
5787;SDS011;2920;48.158;12.254;2023-04-24T05:15:50;0.93;;;0.77;;
5787;SDS011;2920;48.158;12.254;2023-04-24T05:18:16;3.53;;;0.93;;
5787;SDS011;2920;48.158;12.254;2023-04-24T05:20:41;1.05;;;0.70;;
5787;SDS011;2920;48.158;12.254;2023-04-24T05:23:08;1.05;;;0.95;;
5787;SDS011;2920;48.158;12.254;2023-04-24T05:25:34;0.70;;;0.57;;
5787;SDS011;2920;48.158;12.254;2023-04-24T05:28:00;0.70;;;0.70;;
5787;SDS011;2920;48.158;12.254;2023-04-24T05:30:25;0.93;;;0.90;;
5787;SDS011;2920;48.158;12.254;2023-04-24T05:32:51;1.13;;;0.82;;
5787;SDS011;2920;48.158;12.254;2023-04-24T05:35:16;1.13;;;0.70;;
5787;SDS011;2920;48.158;12.254;2023-04-24T05:37:41;0.47;;;0.47;;
5787;SDS011;2920;48.158;12.254;2023-04-24T05:40:07;2.25;;;0.77;;
5787;SDS011;2920;48.158;12.254;2023-04-24T05:42:33;1.10;;;0.60;;
5787;SDS011;2920;48.158;12.254;2023-04-24T05:44:59;0.73;;;0.52;;
5787;SDS011;2920;48.158;12.254;2023-04-24T05:47:24;1.20;;;0.95;;
5787;SDS011;2920;48.158;12.254;2023-04-24T05:49:51;1.95;;;0.90;;
5787;SDS011;2920;48.158;12.254;2023-04-24T05:52:16;4.38;;;0.70;;
5787;SDS011;2920;48.158;12.254;2023-04-24T05:54:41;0.70;;;0.70;;
5787;SDS011;2920;48.158;12.254;2023-04-24T05:57:07;1.13;;;0.77;;
5787;SDS011;2920;48.158;12.254;2023-04-24T05:59:33;0.93;;;0.93;;
5787;SDS011;2920;48.158;12.254;2023-04-24T06:01:59;2.25;;;0.80;;
5787;SDS011;2920;48.158;12.254;2023-04-24T06:04:25;1.25;;;1.08;;
5787;SDS011;2920;48.158;12.254;2023-04-24T06:06:50;1.40;;;1.02;;
5787;SDS011;2920;48.158;12.254;2023-04-24T06:09:20;1.77;;;1.13;;
5787;SDS011;2920;48.158;12.254;2023-04-24T06:11:46;0.85;;;0.70;;
5787;SDS011;2920;48.158;12.254;2023-04-24T06:14:11;1.17;;;1.00;;
5787;SDS011;2920;48.158;12.254;2023-04-24T06:16:36;2.08;;;1.60;;
5787;SDS011;2920;48.158;12.254;2023-04-24T06:19:03;1.20;;;1.10;;
5787;SDS011;2920;48.158;12.254;2023-04-24T06:21:29;1.13;;;1.02;;
5787;SDS011;2920;48.158;12.254;2023-04-24T06:23:54;1.23;;;0.95;;
5787;SDS011;2920;48.158;12.254;2023-04-24T06:26:20;0.90;;;0.90;;
5787;SDS011;2920;48.158;12.254;2023-04-24T06:28:47;2.50;;;1.00;;
5787;SDS011;2920;48.158;12.254;2023-04-24T06:31:12;0.93;;;0.90;;
5787;SDS011;2920;48.158;12.254;2023-04-24T06:33:37;1.05;;;1.00;;
5787;SDS011;2920;48.158;12.254;2023-04-24T06:36:03;1.10;;;0.90;;
5787;SDS011;2920;48.158;12.254;2023-04-24T06:38:29;2.53;;;0.90;;
5787;SDS011;2920;48.158;12.254;2023-04-24T06:40:54;0.77;;;0.77;;
5787;SDS011;2920;48.158;12.254;2023-04-24T06:43:19;1.20;;;1.10;;
5787;SDS011;2920;48.158;12.254;2023-04-24T06:45:45;1.10;;;0.95;;
5787;SDS011;2920;48.158;12.254;2023-04-24T06:48:11;1.42;;;1.10;;
5787;SDS011;2920;48.158;12.254;2023-04-24T06:50:37;2.05;;;1.30;;
5787;SDS011;2920;48.158;12.254;2023-04-24T06:53:02;1.85;;;1.25;;
5787;SDS011;2920;48.158;12.254;2023-04-24T06:55:27;2.28;;;1.17;;
5787;SDS011;2920;48.158;12.254;2023-04-24T06:57:53;2.80;;;1.20;;
5787;SDS011;2920;48.158;12.254;2023-04-24T07:00:18;1.95;;;1.00;;
5787;SDS011;2920;48.158;12.254;2023-04-24T07:02:43;1.10;;;0.98;;
5787;SDS011;2920;48.158;12.254;2023-04-24T07:05:09;2.78;;;1.13;;
5787;SDS011;2920;48.158;12.254;2023-04-24T07:07:34;1.45;;;1.00;;
5787;SDS011;2920;48.158;12.254;2023-04-24T07:10:02;1.73;;;0.93;;
5787;SDS011;2920;48.158;12.254;2023-04-24T07:12:29;0.80;;;0.80;;
5787;SDS011;2920;48.158;12.254;2023-04-24T07:14:54;0.95;;;0.75;;
5787;SDS011;2920;48.158;12.254;2023-04-24T07:17:20;2.30;;;1.00;;
5787;SDS011;2920;48.158;12.254;2023-04-24T07:19:45;0.82;;;0.70;;
5787;SDS011;2920;48.158;12.254;2023-04-24T07:22:11;1.33;;;0.90;;
5787;SDS011;2920;48.158;12.254;2023-04-24T07:24:41;0.95;;;0.68;;
5787;SDS011;2920;48.158;12.254;2023-04-24T07:27:08;1.85;;;0.70;;
5787;SDS011;2920;48.158;12.254;2023-04-24T07:29:33;2.50;;;1.13;;
5787;SDS011;2920;48.158;12.254;2023-04-24T07:31:58;1.23;;;1.13;;
5787;SDS011;2920;48.158;12.254;2023-04-24T07:34:24;0.80;;;0.68;;
5787;SDS011;2920;48.158;12.254;2023-04-24T07:36:49;1.60;;;1.00;;
5787;SDS011;2920;48.158;12.254;2023-04-24T07:39:14;0.80;;;0.75;;
5787;SDS011;2920;48.158;12.254;2023-04-24T07:41:40;0.50;;;0.47;;
5787;SDS011;2920;48.158;12.254;2023-04-24T07:44:05;1.75;;;0.50;;
5787;SDS011;2920;48.158;12.254;2023-04-24T07:46:31;0.50;;;0.40;;
5787;SDS011;2920;48.158;12.254;2023-04-24T07:48:56;0.57;;;0.40;;
5787;SDS011;2920;48.158;12.254;2023-04-24T07:51:22;0.60;;;0.32;;
5787;SDS011;2920;48.158;12.254;2023-04-24T07:53:47;2.08;;;0.47;;
5787;SDS011;2920;48.158;12.254;2023-04-24T07:56:13;0.73;;;0.30;;
5787;SDS011;2920;48.158;12.254;2023-04-24T07:58:38;0.55;;;0.40;;
5787;SDS011;2920;48.158;12.254;2023-04-24T08:01:04;0.30;;;0.30;;
5787;SDS011;2920;48.158;12.254;2023-04-24T08:03:29;0.40;;;0.40;;
5787;SDS011;2920;48.158;12.254;2023-04-24T08:05:55;0.40;;;0.38;;
5787;SDS011;2920;48.158;12.254;2023-04-24T08:08:20;0.40;;;0.20;;
5787;SDS011;2920;48.158;12.254;2023-04-24T08:10:46;2.00;;;0.40;;
5787;SDS011;2920;48.158;12.254;2023-04-24T08:13:12;0.68;;;0.47;;
5787;SDS011;2920;48.158;12.254;2023-04-24T08:15:37;0.63;;;0.40;;
5787;SDS011;2920;48.158;12.254;2023-04-24T08:18:02;0.30;;;0.30;;
5787;SDS011;2920;48.158;12.254;2023-04-24T08:20:28;1.35;;;0.50;;
5787;SDS011;2920;48.158;12.254;2023-04-24T08:22:53;1.38;;;0.40;;
5787;SDS011;2920;48.158;12.254;2023-04-24T08:25:19;1.02;;;0.50;;
5787;SDS011;2920;48.158;12.254;2023-04-24T08:27:45;0.40;;;0.30;;
5787;SDS011;2920;48.158;12.254;2023-04-24T08:30:10;0.35;;;0.32;;
5787;SDS011;2920;48.158;12.254;2023-04-24T08:32:36;0.68;;;0.50;;
5787;SDS011;2920;48.158;12.254;2023-04-24T08:35:02;0.20;;;0.13;;
5787;SDS011;2920;48.158;12.254;2023-04-24T08:37:28;1.00;;;0.40;;
5787;SDS011;2920;48.158;12.254;2023-04-24T08:39:54;0.52;;;0.30;;
5787;SDS011;2920;48.158;12.254;2023-04-24T08:42:19;0.50;;;0.43;;
5787;SDS011;2920;48.158;12.254;2023-04-24T08:44:45;0.30;;;0.25;;
5787;SDS011;2920;48.158;12.254;2023-04-24T08:47:11;0.52;;;0.40;;
5787;SDS011;2920;48.158;12.254;2023-04-24T08:49:37;0.20;;;0.20;;
5787;SDS011;2920;48.158;12.254;2023-04-24T08:52:03;1.55;;;0.40;;
5787;SDS011;2920;48.158;12.254;2023-04-24T08:54:30;0.43;;;0.43;;
5787;SDS011;2920;48.158;12.254;2023-04-24T08:56:58;3.30;;;0.50;;
5787;SDS011;2920;48.158;12.254;2023-04-24T08:59:28;0.90;;;0.30;;
5787;SDS011;2920;48.158;12.254;2023-04-24T09:01:54;1.25;;;0.40;;
5787;SDS011;2920;48.158;12.254;2023-04-24T09:04:20;0.40;;;0.40;;
5787;SDS011;2920;48.158;12.254;2023-04-24T09:06:48;0.90;;;0.25;;
5787;SDS011;2920;48.158;12.254;2023-04-24T09:09:13;2.10;;;0.40;;
5787;SDS011;2920;48.158;12.254;2023-04-24T09:11:40;1.15;;;0.75;;
5787;SDS011;2920;48.158;12.254;2023-04-24T09:14:05;0.45;;;0.15;;
5787;SDS011;2920;48.158;12.254;2023-04-24T09:16:31;0.73;;;0.40;;
5787;SDS011;2920;48.158;12.254;2023-04-24T09:18:58;0.40;;;0.40;;
5787;SDS011;2920;48.158;12.254;2023-04-24T09:21:23;0.40;;;0.30;;
5787;SDS011;2920;48.158;12.254;2023-04-24T09:24:01;0.60;;;0.50;;
5787;SDS011;2920;48.158;12.254;2023-04-24T09:26:32;0.40;;;0.40;;
5787;SDS011;2920;48.158;12.254;2023-04-24T09:28:59;0.30;;;0.30;;
5787;SDS011;2920;48.158;12.254;2023-04-24T09:31:26;0.60;;;0.40;;
5787;SDS011;2920;48.158;12.254;2023-04-24T09:33:56;1.95;;;0.40;;
5787;SDS011;2920;48.158;12.254;2023-04-24T09:36:27;0.80;;;0.52;;
5787;SDS011;2920;48.158;12.254;2023-04-24T09:38:58;2.55;;;0.30;;
5787;SDS011;2920;48.158;12.254;2023-04-24T09:41:26;1.05;;;0.95;;
5787;SDS011;2920;48.158;12.254;2023-04-24T09:43:56;1.00;;;0.55;;
5787;SDS011;2920;48.158;12.254;2023-04-24T09:46:28;1.00;;;0.57;;
5787;SDS011;2920;48.158;12.254;2023-04-24T09:48:55;0.85;;;0.60;;
5787;SDS011;2920;48.158;12.254;2023-04-24T09:51:32;0.70;;;0.63;;
5787;SDS011;2920;48.158;12.254;2023-04-24T09:53:59;0.80;;;0.52;;
5787;SDS011;2920;48.158;12.254;2023-04-24T09:56:25;3.35;;;1.00;;
5787;SDS011;2920;48.158;12.254;2023-04-24T09:58:50;1.35;;;0.80;;
5787;SDS011;2920;48.158;12.254;2023-04-24T10:01:16;0.77;;;0.75;;
5787;SDS011;2920;48.158;12.254;2023-04-24T10:03:41;1.75;;;0.98;;
5787;SDS011;2920;48.158;12.254;2023-04-24T10:06:07;4.75;;;1.10;;
5787;SDS011;2920;48.158;12.254;2023-04-24T10:08:36;1.13;;;0.80;;
5787;SDS011;2920;48.158;12.254;2023-04-24T10:11:02;1.55;;;1.02;;
5787;SDS011;2920;48.158;12.254;2023-04-24T10:13:28;0.85;;;0.85;;
5787;SDS011;2920;48.158;12.254;2023-04-24T10:15:53;2.20;;;0.95;;
5787;SDS011;2920;48.158;12.254;2023-04-24T10:18:19;2.00;;;1.38;;
5787;SDS011;2920;48.158;12.254;2023-04-24T10:20:46;1.27;;;0.90;;
5787;SDS011;2920;48.158;12.254;2023-04-24T10:23:11;1.50;;;1.20;;
5787;SDS011;2920;48.158;12.254;2023-04-24T10:25:36;1.42;;;1.00;;
5787;SDS011;2920;48.158;12.254;2023-04-24T10:28:02;2.00;;;1.10;;
5787;SDS011;2920;48.158;12.254;2023-04-24T10:30:32;2.63;;;1.35;;
5787;SDS011;2920;48.158;12.254;2023-04-24T10:33:07;1.80;;;0.90;;
5787;SDS011;2920;48.158;12.254;2023-04-24T10:35:37;1.20;;;1.02;;
5787;SDS011;2920;48.158;12.254;2023-04-24T10:38:06;1.15;;;1.00;;
5787;SDS011;2920;48.158;12.254;2023-04-24T10:40:34;2.00;;;0.80;;
5787;SDS011;2920;48.158;12.254;2023-04-24T10:43:04;2.17;;;1.00;;
5787;SDS011;2920;48.158;12.254;2023-04-24T10:45:36;1.38;;;1.27;;
5787;SDS011;2920;48.158;12.254;2023-04-24T10:48:03;1.20;;;1.00;;
5787;SDS011;2920;48.158;12.254;2023-04-24T10:50:45;1.60;;;1.20;;
5787;SDS011;2920;48.158;12.254;2023-04-24T10:53:13;4.13;;;1.40;;
5787;SDS011;2920;48.158;12.254;2023-04-24T10:55:50;1.85;;;1.15;;
5787;SDS011;2920;48.158;12.254;2023-04-24T10:58:17;1.85;;;1.10;;
5787;SDS011;2920;48.158;12.254;2023-04-24T11:00:55;1.33;;;1.02;;
5787;SDS011;2920;48.158;12.254;2023-04-24T11:03:23;2.65;;;1.05;;
5787;SDS011;2920;48.158;12.254;2023-04-24T11:10:57;1.67;;;1.20;;
5787;SDS011;2920;48.158;12.254;2023-04-24T11:13:24;2.03;;;1.02;;
5787;SDS011;2920;48.158;12.254;2023-04-24T11:19:24;1.77;;;1.33;;
5787;SDS011;2920;48.158;12.254;2023-04-24T11:22:02;1.42;;;1.08;;
5787;SDS011;2920;48.158;12.254;2023-04-24T11:29:48;1.20;;;1.10;;
5787;SDS011;2920;48.158;12.254;2023-04-24T11:34:48;2.58;;;1.15;;
5787;SDS011;2920;48.158;12.254;2023-04-24T11:37:21;1.42;;;1.00;;
5787;SDS011;2920;48.158;12.254;2023-04-24T11:39:49;2.83;;;1.38;;
5787;SDS011;2920;48.158;12.254;2023-04-24T11:42:15;1.35;;;1.00;;
5787;SDS011;2920;48.158;12.254;2023-04-24T11:44:41;1.50;;;1.17;;
5787;SDS011;2920;48.158;12.254;2023-04-24T11:47:06;1.83;;;1.20;;
5787;SDS011;2920;48.158;12.254;2023-04-24T11:49:33;0.80;;;0.80;;
5787;SDS011;2920;48.158;12.254;2023-04-24T11:51:59;0.90;;;0.70;;
5787;SDS011;2920;48.158;12.254;2023-04-24T11:54:25;0.75;;;0.70;;
5787;SDS011;2920;48.158;12.254;2023-04-24T11:56:51;0.73;;;0.65;;
5787;SDS011;2920;48.158;12.254;2023-04-24T11:59:17;1.65;;;0.80;;
5787;SDS011;2920;48.158;12.254;2023-04-24T12:01:45;3.35;;;0.75;;
5787;SDS011;2920;48.158;12.254;2023-04-24T12:04:11;1.35;;;0.60;;
5787;SDS011;2920;48.158;12.254;2023-04-24T12:06:36;1.15;;;0.60;;
5787;SDS011;2920;48.158;12.254;2023-04-24T12:09:02;0.63;;;0.63;;
5787;SDS011;2920;48.158;12.254;2023-04-24T12:11:27;0.65;;;0.60;;
5787;SDS011;2920;48.158;12.254;2023-04-24T12:13:53;1.05;;;0.90;;
5787;SDS011;2920;48.158;12.254;2023-04-24T12:16:18;1.92;;;1.02;;
5787;SDS011;2920;48.158;12.254;2023-04-24T12:18:44;1.35;;;1.00;;
5787;SDS011;2920;48.158;12.254;2023-04-24T12:21:17;3.60;;;1.42;;
5787;SDS011;2920;48.158;12.254;2023-04-24T12:23:46;1.58;;;1.27;;
5787;SDS011;2920;48.158;12.254;2023-04-24T12:26:12;1.75;;;1.30;;
5787;SDS011;2920;48.158;12.254;2023-04-24T12:28:41;4.20;;;1.50;;
5787;SDS011;2920;48.158;12.254;2023-04-24T12:31:07;1.42;;;1.27;;
5787;SDS011;2920;48.158;12.254;2023-04-24T12:33:33;2.28;;;1.23;;
5787;SDS011;2920;48.158;12.254;2023-04-24T12:35:59;2.80;;;1.50;;
5787;SDS011;2920;48.158;12.254;2023-04-24T12:38:25;2.45;;;1.23;;
5787;SDS011;2920;48.158;12.254;2023-04-24T12:41:04;2.25;;;1.30;;
5787;SDS011;2920;48.158;12.254;2023-04-24T12:43:34;1.52;;;1.23;;
5787;SDS011;2920;48.158;12.254;2023-04-24T12:45:59;1.85;;;1.25;;
5787;SDS011;2920;48.158;12.254;2023-04-24T12:48:25;1.58;;;1.20;;
5787;SDS011;2920;48.158;12.254;2023-04-24T12:50:51;1.60;;;1.08;;
5787;SDS011;2920;48.158;12.254;2023-04-24T12:53:16;1.77;;;1.35;;
5787;SDS011;2920;48.158;12.254;2023-04-24T12:55:42;6.43;;;1.20;;
5787;SDS011;2920;48.158;12.254;2023-04-24T12:58:07;1.50;;;1.20;;
5787;SDS011;2920;48.158;12.254;2023-04-24T13:00:33;1.30;;;1.05;;
5787;SDS011;2920;48.158;12.254;2023-04-24T13:02:58;0.93;;;0.93;;
5787;SDS011;2920;48.158;12.254;2023-04-24T13:05:23;3.00;;;1.08;;
5787;SDS011;2920;48.158;12.254;2023-04-24T13:07:49;1.23;;;1.10;;
5787;SDS011;2920;48.158;12.254;2023-04-24T13:10:15;1.40;;;1.17;;
5787;SDS011;2920;48.158;12.254;2023-04-24T13:12:40;1.60;;;1.40;;
5787;SDS011;2920;48.158;12.254;2023-04-24T13:15:06;2.13;;;1.40;;
5787;SDS011;2920;48.158;12.254;2023-04-24T13:17:31;2.95;;;1.27;;
5787;SDS011;2920;48.158;12.254;2023-04-24T13:19:58;1.33;;;1.20;;
5787;SDS011;2920;48.158;12.254;2023-04-24T13:22:23;1.30;;;1.20;;
5787;SDS011;2920;48.158;12.254;2023-04-24T13:24:48;1.40;;;1.30;;
5787;SDS011;2920;48.158;12.254;2023-04-24T13:27:14;3.33;;;1.30;;
5787;SDS011;2920;48.158;12.254;2023-04-24T13:29:40;4.35;;;1.23;;
5787;SDS011;2920;48.158;12.254;2023-04-24T13:32:05;3.58;;;1.40;;
5787;SDS011;2920;48.158;12.254;2023-04-24T13:34:30;3.42;;;1.60;;
5787;SDS011;2920;48.158;12.254;2023-04-24T13:36:56;1.73;;;1.58;;
5787;SDS011;2920;48.158;12.254;2023-04-24T13:39:23;1.73;;;1.15;;
5787;SDS011;2920;48.158;12.254;2023-04-24T13:41:49;1.38;;;1.00;;
5787;SDS011;2920;48.158;12.254;2023-04-24T13:44:14;2.03;;;1.35;;
5787;SDS011;2920;48.158;12.254;2023-04-24T13:46:40;1.17;;;1.00;;
5787;SDS011;2920;48.158;12.254;2023-04-24T13:49:06;2.55;;;1.50;;
5787;SDS011;2920;48.158;12.254;2023-04-24T13:51:32;1.42;;;0.90;;
5787;SDS011;2920;48.158;12.254;2023-04-24T13:53:57;3.05;;;2.42;;
5787;SDS011;2920;48.158;12.254;2023-04-24T13:56:22;5.88;;;1.63;;
5787;SDS011;2920;48.158;12.254;2023-04-24T13:58:48;4.63;;;1.45;;
5787;SDS011;2920;48.158;12.254;2023-04-24T14:01:13;1.30;;;1.20;;
5787;SDS011;2920;48.158;12.254;2023-04-24T14:03:39;2.15;;;1.33;;
5787;SDS011;2920;48.158;12.254;2023-04-24T14:06:05;1.40;;;1.30;;
5787;SDS011;2920;48.158;12.254;2023-04-24T14:08:31;2.17;;;1.20;;
5787;SDS011;2920;48.158;12.254;2023-04-24T14:10:56;1.10;;;1.00;;
5787;SDS011;2920;48.158;12.254;2023-04-24T14:13:22;1.60;;;1.38;;
5787;SDS011;2920;48.158;12.254;2023-04-24T14:15:47;1.52;;;0.90;;
5787;SDS011;2920;48.158;12.254;2023-04-24T14:18:12;1.35;;;1.17;;
5787;SDS011;2920;48.158;12.254;2023-04-24T14:20:38;1.40;;;1.30;;
5787;SDS011;2920;48.158;12.254;2023-04-24T14:23:03;2.08;;;1.40;;
5787;SDS011;2920;48.158;12.254;2023-04-24T14:25:29;1.55;;;1.23;;
5787;SDS011;2920;48.158;12.254;2023-04-24T14:27:55;6.10;;;1.65;;
5787;SDS011;2920;48.158;12.254;2023-04-24T14:30:20;2.72;;;1.60;;
5787;SDS011;2920;48.158;12.254;2023-04-24T14:32:46;2.05;;;1.30;;
5787;SDS011;2920;48.158;12.254;2023-04-24T14:35:11;1.40;;;1.20;;
5787;SDS011;2920;48.158;12.254;2023-04-24T14:37:37;5.25;;;1.55;;
5787;SDS011;2920;48.158;12.254;2023-04-24T14:40:03;2.33;;;1.60;;
5787;SDS011;2920;48.158;12.254;2023-04-24T14:42:30;2.92;;;1.52;;
5787;SDS011;2920;48.158;12.254;2023-04-24T14:44:55;1.85;;;1.30;;
5787;SDS011;2920;48.158;12.254;2023-04-24T14:47:20;1.80;;;1.20;;
5787;SDS011;2920;48.158;12.254;2023-04-24T14:49:47;2.85;;;1.40;;
5787;SDS011;2920;48.158;12.254;2023-04-24T14:52:13;1.73;;;1.20;;
5787;SDS011;2920;48.158;12.254;2023-04-24T14:54:38;2.08;;;1.20;;
5787;SDS011;2920;48.158;12.254;2023-04-24T14:57:03;3.80;;;1.50;;
5787;SDS011;2920;48.158;12.254;2023-04-24T14:59:28;2.35;;;1.60;;
5787;SDS011;2920;48.158;12.254;2023-04-24T15:01:54;1.38;;;1.23;;
5787;SDS011;2920;48.158;12.254;2023-04-24T15:04:23;2.80;;;1.65;;
5787;SDS011;2920;48.158;12.254;2023-04-24T15:06:50;2.45;;;1.42;;
5787;SDS011;2920;48.158;12.254;2023-04-24T15:09:16;2.97;;;1.98;;